Time;durP1;ratioP1;P1;durP2;ratioP2;P2;SDS_P1;SDS_P2;PMS_P1;PMS_P2;Temp;Humidity;BMP_temperature;BMP_pressure;BME280_temperature;BME280_humidity;BME280_pressure;Samples;Min_cycle;Max_cycle;Signal;HPM_P1;HPM_P2
2021/03/26 00:01:49;;;;;;;68.05;27.83;;;10.40;99.90;;;10.90;70.45;101554.34;5089547;28;20199;-75
2021/03/26 00:04:18;;;;;;;60.90;28.60;;;10.30;99.90;;;10.85;70.63;101556.22;5072300;28;20844;-75
2021/03/26 00:06:47;;;;;;;63.78;27.88;;;10.30;99.90;;;10.83;70.65;101558.88;5054612;28;20200;-74
2021/03/26 00:09:17;;;;;;;64.28;26.88;;;10.30;99.90;;;10.80;71.03;101556.31;5052307;28;20553;-73
2021/03/26 00:11:44;;;;;;;60.67;27.25;;;10.20;99.90;;;10.77;71.35;101558.16;5068183;28;20544;-74
2021/03/26 00:14:11;;;;;;;65.85;26.63;;;10.20;99.90;;;10.73;71.25;101546.06;5054045;28;20200;-75
2021/03/26 00:16:38;;;;;;;63.55;26.73;;;10.20;99.90;;;10.69;71.14;101555.75;5066010;28;20288;-74
2021/03/26 00:19:06;;;;;;;64.65;28.67;;;10.10;99.90;;;10.66;71.19;101553.19;5073570;28;20230;-75
2021/03/26 00:21:33;;;;;;;65.13;27.85;;;10.10;99.90;;;10.65;71.71;101558.47;5063944;28;20196;-74
2021/03/26 00:24:00;;;;;;;65.57;27.75;;;10.10;99.90;;;10.65;71.55;101561.09;5047584;28;20234;-74
2021/03/26 00:26:26;;;;;;;64.25;28.48;;;10.10;99.90;;;10.66;71.43;101555.81;5060574;28;20558;-75
2021/03/26 00:28:53;;;;;;;66.38;26.80;;;10.00;99.90;;;10.67;71.86;101559.28;5045741;28;20555;-76
2021/03/26 00:31:20;;;;;;;70.60;27.65;;;10.10;99.90;;;10.66;71.59;101561.06;5063537;28;20195;-75
2021/03/26 00:33:47;;;;;;;71.35;29.23;;;10.10;99.90;;;10.64;71.57;101568.06;5044103;28;20298;-76
2021/03/26 00:36:14;;;;;;;63.95;27.33;;;10.00;99.90;;;10.60;71.56;101570.81;5051177;28;20224;-75
2021/03/26 00:38:41;;;;;;;67.00;27.30;;;10.00;99.90;;;10.55;71.80;101563.03;5066254;28;20665;-76
2021/03/26 00:41:08;;;;;;;65.40;28.10;;;10.00;99.90;;;10.53;71.67;101564.88;5067540;28;20195;-75
2021/03/26 00:43:35;;;;;;;63.53;27.73;;;10.00;99.90;;;10.49;71.95;101563.22;5046887;28;20219;-75
2021/03/26 00:46:03;;;;;;;69.10;28.63;;;9.90;99.90;;;10.50;72.05;101558.84;5045891;28;20195;-75
2021/03/26 00:48:30;;;;;;;58.30;26.83;;;9.90;99.90;;;10.48;72.25;101556.25;5044651;28;20729;-75
2021/03/26 00:51:01;;;;;;;59.72;26.75;;;9.90;99.90;;;10.47;72.41;101557.13;5047632;28;20254;-75
2021/03/26 00:53:33;;;;;;;64.25;27.88;;;9.90;99.90;;;10.46;72.47;101558.06;5062041;28;20223;-75
2021/03/26 00:56:04;;;;;;;59.80;27.25;;;9.90;99.90;;;10.45;72.39;101551.06;5050937;28;20745;-74
2021/03/26 00:58:32;;;;;;;64.68;27.63;;;9.80;99.90;;;10.45;72.55;101551.06;5042586;28;20206;-75
2021/03/26 01:00:59;;;;;;;65.30;26.55;;;9.80;99.90;;;10.44;72.43;101549.38;5042282;28;20295;-74
2021/03/26 01:03:29;;;;;;;65.90;27.42;;;9.90;99.90;;;10.42;72.64;101545.06;5049080;28;20208;-74
2021/03/26 01:06:00;;;;;;;64.75;27.75;;;9.80;99.90;;;10.41;72.68;101544.22;5047278;28;20209;-74
2021/03/26 01:08:29;;;;;;;62.65;26.88;;;9.80;99.90;;;10.40;72.83;101541.63;5049551;28;20283;-76
2021/03/26 01:11:09;;;;;;;61.45;26.73;;;9.80;99.90;;;10.38;72.47;101539.06;5065479;28;20270;-74
2021/03/26 01:13:36;;;;;;;67.78;28.30;;;9.80;99.90;;;10.44;72.95;101543.28;5063429;28;20295;-75
2021/03/26 01:16:04;;;;;;;63.17;26.98;;;9.80;99.90;;;10.45;72.75;101545.00;5047036;28;20641;-74
2021/03/26 01:18:37;;;;;;;61.92;27.35;;;9.80;99.90;;;10.44;73.00;101544.13;5047253;28;20193;-76
2021/03/26 01:21:12;;;;;;;62.30;26.92;;;9.80;99.90;;;10.43;73.10;101541.56;5047147;28;20261;-74
2021/03/26 01:23:41;;;;;;;64.38;26.48;;;9.80;99.90;;;10.40;72.96;101546.88;5063015;28;20228;-75
2021/03/26 01:26:10;;;;;;;66.57;27.17;;;9.80;99.90;;;10.41;72.94;101551.19;5062292;28;20257;-74
2021/03/26 01:28:57;;;;;;;64.05;26.67;;;9.80;99.90;;;10.42;73.19;101551.16;5063725;28;20220;-74
2021/03/26 01:31:37;;;;;;;55.58;26.65;;;9.90;99.90;;;10.43;73.34;101549.41;5045820;28;20199;-74
2021/03/26 01:34:07;;;;;;;63.67;27.38;;;9.90;99.90;;;10.43;73.26;101546.78;5062022;28;20283;-77
2021/03/26 01:36:39;;;;;;;65.47;27.58;;;9.90;99.90;;;10.46;73.16;101547.59;5063487;28;20245;-76
2021/03/26 01:39:11;;;;;;;64.88;25.40;;;9.90;99.90;;;10.49;72.90;101541.41;5061470;28;20200;-76
2021/03/26 01:41:46;;;;;;;64.07;28.45;;;9.90;99.90;;;10.51;72.86;101540.50;5045590;28;20223;-74
2021/03/26 01:44:19;;;;;;;64.18;27.15;;;9.90;99.90;;;10.51;72.81;101550.09;5063539;28;20192;-75
2021/03/26 01:46:47;;;;;;;63.35;27.30;;;9.90;99.90;;;10.50;73.11;101543.16;5063420;28;20569;-74
2021/03/26 01:49:16;;;;;;;63.65;27.70;;;9.90;99.90;;;10.49;72.97;101537.03;5046310;28;20220;-73
2021/03/26 01:51:50;;;;;;;62.00;26.63;;;9.90;99.90;;;10.50;73.13;101537.91;5040898;28;20200;-74
2021/03/26 01:54:22;;;;;;;64.00;27.48;;;10.00;99.90;;;10.49;73.17;101530.94;5045025;28;20668;-74
2021/03/26 01:56:51;;;;;;;64.55;26.85;;;9.90;99.90;;;10.50;73.25;101535.28;5047507;28;20202;-75
2021/03/26 01:59:37;;;;;;;66.32;26.83;;;10.00;99.90;;;10.53;73.39;101535.22;5063891;28;20777;-73
2021/03/26 02:02:09;;;;;;;65.10;25.95;;;10.00;99.90;;;10.56;73.11;101540.38;5046474;28;20232;-74
2021/03/26 02:05:08;;;;;;;59.40;25.65;;;10.00;99.90;;;10.58;73.03;101531.59;5046621;28;20225;-74
2021/03/26 02:07:38;;;;;;;65.47;26.27;;;10.00;99.90;;;10.61;73.33;101526.28;5066127;28;20200;-74
2021/03/26 02:10:08;;;;;;;65.30;26.67;;;10.10;99.90;;;10.64;73.19;101520.09;5044626;28;20258;-76
2021/03/26 02:12:36;;;;;;;59.95;25.48;;;10.00;99.90;;;10.65;73.04;101524.44;5069198;28;20216;-73
2021/03/26 02:15:18;;;;;;;58.85;26.20;;;10.10;99.90;;;10.66;72.88;101520.91;5048184;28;20199;-74
2021/03/26 02:17:47;;;;;;;55.42;25.48;;;10.10;99.90;;;10.66;72.89;101524.41;5077300;28;20215;-74
2021/03/26 02:20:41;;;;;;;61.28;27.17;;;10.10;99.90;;;10.66;73.00;101520.91;5057635;28;20204;-73
2021/03/26 02:23:15;;;;;;;67.10;26.98;;;10.10;99.90;;;10.65;72.87;101527.06;5066372;28;20234;-72
2021/03/26 02:25:57;;;;;;;60.65;26.33;;;10.10;99.90;;;10.63;73.20;101521.88;5095251;28;20200;-73
2021/03/26 02:28:25;;;;;;;63.08;26.13;;;10.00;99.90;;;10.61;72.76;101528.91;5077220;28;20176;-73
2021/03/26 02:31:12;;;;;;;61.13;25.95;;;10.00;99.90;;;10.58;73.01;101533.34;5090973;28;20255;-73
2021/03/26 02:33:38;;;;;;;61.83;26.50;;;10.00;99.90;;;10.55;73.03;101523.78;5090784;28;20215;-74
2021/03/26 02:36:44;;;;;;;65.40;26.92;;;10.00;99.90;;;10.54;73.30;101524.69;5074233;28;20191;-74
2021/03/26 02:39:23;;;;;;;61.65;26.40;;;10.00;99.90;;;10.53;73.28;101529.97;5090001;28;20180;-74
2021/03/26 02:42:00;;;;;;;61.10;26.52;;;9.90;99.90;;;10.52;73.26;101533.47;5071274;28;20208;-73
2021/03/26 02:44:56;;;;;;;60.63;26.67;;;9.90;99.90;;;10.51;73.16;101544.84;5064717;28;20198;-74
2021/03/26 02:47:55;;;;;;;60.40;25.88;;;9.90;99.90;;;10.48;73.41;101539.69;5061031;28;20196;-74
2021/03/26 02:50:46;;;;;;;62.33;26.30;;;9.90;99.90;;;10.46;73.45;101541.47;5063707;28;20226;-76
2021/03/26 02:53:24;;;;;;;62.53;26.83;;;9.90;99.90;;;10.46;73.37;101539.75;5045943;28;20715;-74
2021/03/26 02:56:03;;;;;;;61.90;25.40;;;9.90;99.90;;;10.48;73.20;101534.47;5043007;28;20196;-74
2021/03/26 02:58:41;;;;;;;65.95;27.23;;;9.90;99.90;;;10.50;73.39;101538.75;5044291;28;20204;-72
2021/03/26 03:01:15;;;;;;;61.70;25.98;;;9.90;99.90;;;10.49;73.27;101525.69;5066535;28;20709;-75
2021/03/26 03:03:47;;;;;;;59.40;25.77;;;9.90;99.90;;;10.55;73.29;101533.44;5041908;28;20215;-76
2021/03/26 03:06:22;;;;;;;63.78;26.85;;;9.90;99.90;;;10.57;73.05;101536.84;5060893;28;20231;-73
2021/03/26 03:09:28;;;;;;;64.57;27.80;;;10.00;99.90;;;10.57;72.90;101529.84;4987293;28;20191;-74
2021/03/26 03:12:02;;;;;;;62.60;25.75;;;10.00;99.90;;;10.60;72.83;101523.69;5032803;28;20213;-74
2021/03/26 03:14:39;;;;;;;63.15;25.80;;;10.00;99.90;;;10.64;72.77;101525.31;5037600;28;20203;-73
2021/03/26 03:17:17;;;;;;;63.97;26.67;;;10.00;99.90;;;10.67;72.68;101533.09;5044075;28;20187;-75
2021/03/26 03:19:56;;;;;;;61.15;25.88;;;10.10;99.90;;;10.67;72.63;101530.47;5050015;28;20203;-76
2021/03/26 03:22:30;;;;;;;66.63;26.13;;;10.10;99.90;;;10.65;72.43;101532.31;5047173;28;20227;-75
2021/03/26 03:25:09;;;;;;;58.13;25.95;;;10.10;99.90;;;10.64;72.79;101530.56;5048773;28;20211;-75
2021/03/26 03:27:43;;;;;;;59.05;26.35;;;10.10;99.90;;;10.62;72.68;101530.59;5046543;28;20193;-74
2021/03/26 03:30:27;;;;;;;61.75;25.85;;;10.10;99.90;;;10.61;72.81;101531.50;5045575;28;20217;-73
2021/03/26 03:33:12;;;;;;;63.28;26.80;;;10.10;99.90;;;10.61;72.75;101530.66;5069130;28;20298;-74
2021/03/26 03:35:58;;;;;;;72.07;28.35;;;10.10;99.90;;;10.60;72.96;101519.31;5072997;28;20191;-73
2021/03/26 03:38:49;;;;;;;66.53;27.90;;;10.10;99.90;;;10.61;72.94;101521.03;5053198;28;20566;-74
2021/03/26 03:41:25;;;;;;;57.83;25.85;;;10.10;99.90;;;10.61;72.75;101513.19;5047623;28;21931;-73
2021/03/26 03:44:04;;;;;;;65.15;25.80;;;10.10;99.90;;;10.62;72.76;101517.53;5049542;28;20219;-74
2021/03/26 03:46:45;;;;;;;62.85;26.08;;;10.10;99.90;;;10.61;72.89;101510.56;5065060;28;20192;-74
2021/03/26 03:49:45;;;;;;;64.68;27.10;;;10.10;99.90;;;10.62;72.90;101512.28;5074218;28;20683;-73
2021/03/26 03:52:23;;;;;;;62.63;27.88;;;10.10;99.90;;;10.62;72.84;101516.66;5067648;28;20257;-74
2021/03/26 03:55:01;;;;;;;60.90;26.35;;;10.10;99.90;;;10.62;72.90;101514.03;5070630;28;20633;-73
2021/03/26 03:57:46;;;;;;;56.85;26.52;;;10.10;99.90;;;10.60;72.88;101523.69;5046366;28;20204;-73
2021/03/26 04:00:22;;;;;;;64.40;27.08;;;10.10;99.90;;;10.59;72.79;101512.38;5064406;28;20254;-73
2021/03/26 04:03:10;;;;;;;64.57;26.88;;;10.00;99.90;;;10.58;72.78;101515.91;5050113;28;20212;-73
2021/03/26 04:05:44;;;;;;;69.63;27.73;;;10.00;99.90;;;10.58;72.80;101512.41;5062582;28;20677;-73
2021/03/26 04:08:24;;;;;;;57.75;27.23;;;10.00;99.90;;;10.58;72.91;101507.19;5048636;28;20196;-74
2021/03/26 04:10:58;;;;;;;67.55;27.05;;;10.00;99.90;;;10.56;73.10;101514.19;5047496;28;20207;-74
2021/03/26 04:13:33;;;;;;;62.25;27.55;;;10.00;99.90;;;10.56;72.76;101508.97;5070572;28;20218;-73
2021/03/26 04:16:02;;;;;;;64.68;26.83;;;10.00;99.90;;;10.56;73.05;101514.19;5048716;28;20206;-73
2021/03/26 04:18:42;;;;;;;62.35;28.25;;;10.00;99.90;;;10.55;72.89;101513.31;5063478;28;20199;-74
2021/03/26 04:21:45;;;;;;;59.45;26.55;;;10.00;99.90;;;10.56;73.13;101511.56;5046746;28;20193;-74
2021/03/26 04:24:25;;;;;;;63.70;27.10;;;10.00;99.90;;;10.57;73.18;101510.66;5069931;28;20617;-73
2021/03/26 04:27:27;;;;;;;64.63;28.02;;;10.00;99.90;;;10.59;73.43;101509.75;5049065;28;20192;-74
2021/03/26 04:30:11;;;;;;;65.30;26.88;;;10.00;99.90;;;10.62;73.23;101512.28;5045132;28;20734;-73
2021/03/26 04:32:47;;;;;;;64.22;26.25;;;10.10;99.90;;;10.65;73.19;101516.59;5068712;28;20251;-73
2021/03/26 04:35:17;;;;;;;61.85;27.30;;;10.10;99.90;;;10.66;73.27;101513.06;5069882;28;20224;-73
2021/03/26 04:37:59;;;;;;;62.10;27.00;;;10.10;99.90;;;10.64;73.35;101515.72;5046621;28;20200;-74
2021/03/26 04:40:33;;;;;;;61.53;25.65;;;10.10;99.90;;;10.63;73.37;101514.03;5058399;28;20223;-74
2021/03/26 04:43:12;;;;;;;64.50;27.75;;;10.10;99.90;;;10.64;73.22;101518.34;5047566;28;20212;-74
2021/03/26 04:45:49;;;;;;;62.95;26.10;;;10.10;99.90;;;10.64;73.20;101514.84;5060247;28;20241;-73
2021/03/26 04:48:42;;;;;;;58.50;26.40;;;10.10;99.90;;;10.62;73.41;101516.66;5047708;28;20205;-72
2021/03/26 04:51:38;;;;;;;63.80;25.75;;;10.10;99.90;;;10.61;73.10;101515.81;5044419;28;20283;-74
2021/03/26 04:54:30;;;;;;;61.83;25.05;;;10.10;99.90;;;10.60;73.46;101515.84;5060869;28;20192;-73
2021/03/26 04:57:10;;;;;;;64.93;26.45;;;10.10;99.90;;;10.56;73.58;101516.81;5043107;28;20695;-73
2021/03/26 04:59:54;;;;;;;61.10;27.65;;;10.00;99.90;;;10.56;73.58;101517.69;5045286;28;20254;-73
2021/03/26 05:02:23;;;;;;;73.95;28.48;;;10.10;99.90;;;10.58;73.66;101520.25;5062472;28;20211;-74
2021/03/26 05:04:56;;;;;;;66.15;27.92;;;10.00;99.90;;;10.57;73.94;101518.53;5066005;28;20284;-74
2021/03/26 05:07:39;;;;;;;64.50;27.95;;;10.00;99.90;;;10.56;74.11;101524.66;5044350;28;20211;-75
2021/03/26 05:10:14;;;;;;;60.08;25.75;;;10.00;99.90;;;10.56;73.92;101527.28;5059015;28;20192;-74
2021/03/26 05:12:52;;;;;;;75.07;28.50;;;10.00;99.90;;;10.54;73.89;101535.16;5044785;28;20703;-74
2021/03/26 05:15:36;;;;;;;67.88;27.42;;;10.00;99.90;;;10.52;74.08;101542.19;5046609;28;20203;-73
2021/03/26 05:18:23;;;;;;;66.43;26.98;;;10.00;99.90;;;10.49;74.30;101549.25;5047280;28;20855;-74
2021/03/26 05:21:00;;;;;;;64.80;26.85;;;10.00;99.90;;;10.42;74.30;101550.28;5047357;28;20209;-72
2021/03/26 05:23:36;;;;;;;64.30;27.38;;;9.90;99.90;;;10.33;74.46;101551.38;5063244;28;20553;-74
2021/03/26 05:26:04;;;;;;;62.13;27.33;;;9.80;99.90;;;10.26;74.95;101556.78;5063736;28;20200;-73
2021/03/26 05:28:47;;;;;;;64.65;27.52;;;9.70;99.90;;;10.18;75.16;101556.94;5046489;28;20196;-76
2021/03/26 05:31:45;;;;;;;64.97;27.60;;;9.60;99.90;;;10.15;75.74;101559.63;5062816;28;20200;-75
2021/03/26 05:34:31;;;;;;;63.70;27.73;;;9.50;99.90;;;10.13;76.06;101569.25;5053574;28;20287;-75
2021/03/26 05:37:14;;;;;;;70.68;28.02;;;9.40;99.90;;;10.11;76.30;101566.69;5047999;28;20343;-74
2021/03/26 05:40:21;;;;;;;69.28;29.02;;;9.40;99.90;;;10.11;76.84;101569.28;5062494;28;20588;-74
2021/03/26 05:43:19;;;;;;;75.53;30.23;;;9.30;99.90;;;10.16;76.86;101568.34;5063423;28;20223;-73
2021/03/26 05:46:14;;;;;;;74.93;28.17;;;9.40;99.90;;;10.21;76.97;101571.72;5044899;28;20196;-73
2021/03/26 05:49:24;;;;;;;69.93;28.40;;;9.40;99.90;;;10.22;77.35;101568.19;5036532;28;20223;-73
2021/03/26 05:52:22;;;;;;;63.90;28.50;;;9.40;99.90;;;10.20;77.33;101570.00;5044718;28;20261;-74
2021/03/26 05:55:10;;;;;;;66.22;27.23;;;9.40;99.90;;;10.16;77.64;101563.13;5059769;28;20668;-72
2021/03/26 05:57:57;;;;;;;66.03;28.42;;;9.40;99.90;;;10.16;78.58;101553.53;5074708;28;20201;-74
2021/03/26 06:00:54;;;;;;;86.22;32.92;;;9.40;99.90;;;10.21;79.28;101549.03;5053041;28;20247;-73
2021/03/26 06:04:32;;;;;;;87.88;31.77;;;9.40;99.90;;;10.26;79.21;101554.16;5062997;28;20207;-74
2021/03/26 06:07:49;;;;;;;79.78;29.77;;;9.40;99.90;;;10.27;79.03;101561.97;5062901;28;20215;-74
2021/03/26 06:11:07;;;;;;;79.40;29.05;;;9.50;99.90;;;10.25;79.78;101563.75;5062055;28;21162;-75
2021/03/26 06:14:38;;;;;;;76.93;31.20;;;9.50;99.90;;;10.29;80.33;101564.56;5066942;28;20277;-76
2021/03/26 06:18:09;;;;;;;81.43;29.73;;;9.60;99.90;;;10.31;80.32;101554.91;5029408;28;20264;-74
2021/03/26 06:21:25;;;;;;;77.85;30.35;;;9.60;99.90;;;10.34;80.33;101562.69;5032500;28;20678;-73
2021/03/26 06:25:06;;;;;;;89.18;30.33;;;9.70;99.90;;;10.40;80.28;101563.41;5045682;28;20215;-76
2021/03/26 06:27:46;;;;;;;79.00;29.30;;;9.70;99.90;;;10.41;79.86;101564.28;5038540;28;20195;-75
2021/03/26 06:30:27;;;;;;;73.25;30.75;;;9.70;99.90;;;10.40;79.69;101565.19;5035731;28;20302;-76
2021/03/26 06:33:54;;;;;;;73.47;30.05;;;9.70;99.90;;;10.37;79.44;101560.88;5053235;28;20243;-79
2021/03/26 06:36:50;;;;;;;72.28;29.45;;;9.70;99.90;;;10.39;79.32;101560.81;5026721;28;20191;-77
2021/03/26 06:39:43;;;;;;;77.80;30.55;;;9.70;99.90;;;10.43;79.61;101557.25;5034755;28;20235;-76
2021/03/26 06:42:36;;;;;;;79.28;30.63;;;9.80;99.90;;;10.49;79.46;101557.09;5055114;28;20242;-76
2021/03/26 06:45:45;;;;;;;71.60;30.23;;;9.90;99.90;;;10.54;79.32;101544.78;5034010;28;20199;-76
2021/03/26 06:48:50;;;;;;;72.90;28.63;;;9.90;99.90;;;10.64;79.28;101551.50;5007675;28;20277;-76
2021/03/26 06:51:59;;;;;;;71.47;29.63;;;10.10;99.90;;;10.67;79.13;101556.66;5024734;28;20208;-78
2021/03/26 06:54:53;;;;;;;76.22;29.38;;;10.20;99.90;;;10.67;79.11;101556.66;5034672;28;20208;-77
2021/03/26 06:57:43;;;;;;;66.43;27.95;;;10.20;99.90;;;10.68;78.90;101558.41;5037625;28;20261;-75
2021/03/26 07:00:49;;;;;;;68.93;27.27;;;10.30;99.90;;;10.74;78.34;101572.19;5051903;28;20272;-74
2021/03/26 07:03:45;;;;;;;67.40;28.67;;;10.30;99.90;;;10.80;77.94;101572.03;5042037;28;20258;-78
2021/03/26 07:07:16;;;;;;;74.57;28.75;;;10.40;99.90;;;10.88;78.25;101577.09;5052141;28;20692;-77
2021/03/26 07:10:13;;;;;;;73.65;29.80;;;10.60;99.90;;;10.91;77.81;101577.88;5031007;28;20786;-74
2021/03/26 07:12:59;;;;;;;71.78;29.42;;;10.70;99.90;;;10.93;78.12;101570.84;5054134;28;20247;-77
2021/03/26 07:15:39;;;;;;;65.57;26.73;;;10.80;99.90;;;10.93;77.96;101576.09;5056278;28;20239;-77
2021/03/26 07:18:26;;;;;;;65.35;27.70;;;10.80;99.90;;;10.88;77.68;101582.31;5036135;28;20319;-72
2021/03/26 07:21:11;;;;;;;71.05;27.52;;;10.80;99.90;;;10.82;77.69;101587.69;5043959;28;20300;-76
2021/03/26 07:24:35;;;;;;;74.90;27.60;;;10.70;99.90;;;10.80;77.66;101568.56;5054792;28;20289;-76
2021/03/26 07:27:21;;;;;;;65.97;27.42;;;10.70;99.90;;;10.80;77.44;101579.88;5055163;28;20227;-75
2021/03/26 07:30:27;;;;;;;71.65;29.90;;;10.60;99.90;;;10.82;77.38;101580.72;5048429;28;20204;-74
2021/03/26 07:33:12;;;;;;;63.75;27.63;;;10.60;99.90;;;10.87;77.67;101572.72;5055345;28;20209;-75
2021/03/26 07:36:11;;;;;;;74.72;28.45;;;10.70;99.90;;;10.92;77.30;101571.72;5060504;28;20276;-75
2021/03/26 07:39:03;;;;;;;65.40;29.33;;;10.70;99.90;;;10.93;77.29;101588.31;5062131;28;20173;-73
2021/03/26 07:42:15;;;;;;;67.97;27.98;;;10.70;99.90;;;10.96;77.31;101578.63;5064642;28;20212;-75
2021/03/26 07:45:02;;;;;;;72.95;27.92;;;10.80;99.90;;;11.05;77.23;101575.75;5068019;28;20247;-76
2021/03/26 07:47:43;;;;;;;66.38;28.38;;;10.90;99.90;;;11.14;76.88;101574.66;5084705;28;20181;-73
2021/03/26 07:50:35;;;;;;;64.55;27.90;;;11.00;99.90;;;11.30;76.33;101576.00;5078712;28;20188;-76
2021/03/26 07:53:18;;;;;;;69.70;29.17;;;11.20;99.90;;;11.40;75.90;101583.53;5070109;28;20441;-73
2021/03/26 07:55:54;;;;;;;72.15;28.70;;;11.30;99.90;;;11.45;75.60;101579.97;5084153;28;20420;-78
2021/03/26 07:59:29;;;;;;;68.13;28.77;;;11.40;99.90;;;11.48;74.93;101578.13;5077074;28;20264;-75
2021/03/26 08:02:27;;;;;;;66.68;28.33;;;11.40;99.90;;;11.56;74.64;101576.13;5036010;28;20215;-74
2021/03/26 08:05:03;;;;;;;71.68;30.02;;;11.50;99.90;;;11.66;73.86;101572.38;5056872;28;20264;-74
2021/03/26 08:08:16;;;;;;;66.43;28.20;;;11.70;99.90;;;11.83;74.19;101578.03;5064375;28;20220;-76
2021/03/26 08:10:51;;;;;;;66.95;28.63;;;11.80;99.90;;;12.00;73.77;101582.78;5053069;28;20214;-75
2021/03/26 08:13:37;;;;;;;67.20;28.40;;;12.10;99.90;;;12.11;73.23;101591.19;5043629;28;21078;-77
2021/03/26 08:16:44;;;;;;;68.63;28.00;;;12.20;99.90;;;12.22;73.20;101589.09;5040636;28;20200;-78
2021/03/26 08:19:23;;;;;;;66.63;28.42;;;12.40;99.90;;;12.25;73.27;101584.63;5024463;28;20281;-77
2021/03/26 08:22:00;;;;;;;71.72;29.67;;;12.50;99.90;;;12.25;72.86;101582.00;5051422;28;20212;-75
2021/03/26 08:25:17;;;;;;;65.57;27.23;;;12.40;99.90;;;12.24;72.96;101588.16;5053223;28;20195;-74
2021/03/26 08:27:54;;;;;;;72.18;29.90;;;12.40;99.90;;;12.18;73.28;101584.84;5034445;28;20208;-75
2021/03/26 08:30:47;;;;;;;69.63;28.75;;;12.30;99.90;;;12.14;73.53;101583.25;5044346;28;20197;-74
2021/03/26 08:34:03;;;;;;;68.88;29.70;;;12.20;99.90;;;12.10;73.63;101589.47;5046640;28;20259;-74
2021/03/26 08:36:39;;;;;;;71.43;29.25;;;12.10;99.90;;;12.08;73.21;101589.53;5035274;28;20215;-76
2021/03/26 08:39:28;;;;;;;67.65;28.90;;;12.10;99.90;;;12.09;73.29;101588.59;5035096;28;20235;-75
2021/03/26 08:42:09;;;;;;;70.97;29.05;;;12.10;99.90;;;12.15;73.09;101593.69;5050344;28;20213;-75
2021/03/26 08:44:38;;;;;;;68.25;28.45;;;12.10;99.90;;;12.23;73.06;101589.06;5044224;28;20204;-75
2021/03/26 08:47:24;;;;;;;65.55;27.80;;;12.20;99.90;;;12.34;72.23;101584.34;5034966;28;20202;-74
2021/03/26 08:49:56;;;;;;;70.20;27.67;;;12.30;99.90;;;12.43;71.99;101583.19;5051585;28;20438;-74
2021/03/26 08:53:01;;;;;;;66.88;28.45;;;12.40;99.90;;;12.52;71.66;101586.38;5055787;28;20264;-75
2021/03/26 08:55:47;;;;;;;65.85;27.95;;;12.40;99.90;;;12.53;71.00;101587.25;5041593;28;20408;-74
2021/03/26 08:58:51;;;;;;;69.35;29.40;;;12.30;99.90;;;12.51;70.88;101583.81;5048107;28;20203;-74
2021/03/26 09:01:45;;;;;;;71.65;29.80;;;12.40;99.90;;;12.53;71.08;101580.25;5052581;28;21258;-78
2021/03/26 09:04:59;;;;;;;65.93;28.38;;;12.30;99.90;;;12.62;70.91;101581.72;5046690;28;20200;-77
2021/03/26 09:07:48;;;;;;;65.78;28.95;;;12.40;99.90;;;12.73;70.52;101581.34;5052533;28;20193;-76
2021/03/26 09:10:57;;;;;;;61.10;27.70;;;12.50;99.90;;;12.82;70.28;101583.69;5050566;28;20208;-73
2021/03/26 09:13:40;;;;;;;72.63;29.15;;;12.60;99.90;;;12.95;70.21;101579.75;5038442;28;20207;-75
2021/03/26 09:16:12;;;;;;;65.03;29.80;;;12.70;99.90;;;13.13;69.76;101579.19;5054546;28;20250;-75
2021/03/26 09:19:02;;;;;;;68.70;30.73;;;13.00;99.90;;;13.32;69.00;101575.84;5060690;28;20204;-75
2021/03/26 09:21:58;;;;;;;65.60;30.42;;;13.20;99.90;;;13.55;68.30;101568.00;5036054;28;20227;-74
2021/03/26 09:24:57;;;;;;;73.70;31.45;;;13.50;99.90;;;13.77;67.53;101573.34;5051903;28;20291;-74
2021/03/26 09:27:35;;;;;;;66.25;30.23;;;13.70;99.90;;;13.90;66.95;101563.25;5053165;28;20185;-75
2021/03/26 09:30:18;;;;;;;67.55;30.67;;;13.80;99.90;;;13.97;67.07;101560.31;5055211;28;20203;-75
2021/03/26 09:32:52;;;;;;;72.13;30.58;;;13.90;99.90;;;14.03;66.99;101561.84;5051796;28;20224;-75
2021/03/26 09:35:25;;;;;;;69.53;30.83;;;14.00;99.90;;;14.06;66.72;101565.22;5039462;28;21574;-75
2021/03/26 09:38:03;;;;;;;62.25;30.90;;;14.10;99.90;;;14.08;67.04;101557.28;5057978;28;20334;-75
2021/03/26 09:40:43;;;;;;;77.20;31.77;;;14.10;99.90;;;14.06;66.81;101554.69;5051821;28;20222;-75
2021/03/26 09:43:19;;;;;;;73.85;32.33;;;14.10;99.90;;;14.11;66.87;101562.41;5045843;28;20215;-77
2021/03/26 09:46:02;;;;;;;67.85;31.08;;;14.10;99.90;;;14.15;66.98;101553.50;5031415;28;20315;-75
2021/03/26 09:48:52;;;;;;;73.22;31.08;;;14.10;99.90;;;14.22;66.65;101554.94;5033988;28;20204;-78
2021/03/26 09:51:41;;;;;;;71.97;31.08;;;14.20;99.90;;;14.25;65.82;101555.72;5031863;28;20211;-77
2021/03/26 09:54:27;;;;;;;66.15;29.17;;;14.20;99.90;;;14.33;64.96;101545.78;5016846;28;20197;-75
2021/03/26 09:57:23;;;;;;;76.00;32.65;;;14.30;99.90;;;14.41;64.43;101545.44;5027723;28;20192;-72
2021/03/26 10:00:24;;;;;;;63.08;30.10;;;14.30;99.90;;;14.48;64.69;101547.78;5049286;28;20197;-72
2021/03/26 10:03:07;;;;;;;62.22;27.88;;;14.30;99.90;;;14.62;64.34;101539.31;5028631;28;20709;-73
2021/03/26 10:05:49;;;;;;;60.53;28.70;;;14.50;99.90;;;14.66;62.67;101535.63;5055392;28;20193;-71
2021/03/26 10:11:15;;;;;;;57.70;25.70;;;14.70;99.90;;;14.64;61.82;101538.34;5052047;28;20659;-74
2021/03/26 10:13:50;;;;;;;54.90;26.67;;;14.60;99.90;;;14.56;61.62;101535.16;5056891;28;20220;-75
2021/03/26 10:16:27;;;;;;;53.15;25.67;;;14.50;99.90;;;14.47;61.10;101534.66;5064063;28;20203;-73
2021/03/26 10:19:01;;;;;;;61.50;27.05;;;14.40;99.90;;;14.43;61.14;101528.69;5076839;28;20223;-76
2021/03/26 10:21:34;;;;;;;52.35;24.13;;;14.30;99.90;;;14.45;61.04;101528.63;5064131;28;20240;-74
2021/03/26 10:24:14;;;;;;;53.78;25.80;;;14.30;99.90;;;14.45;60.52;101526.81;5074983;28;20203;-75
2021/03/26 10:26:50;;;;;;;53.10;25.15;;;14.20;99.90;;;14.50;60.37;101524.84;5070344;28;20196;-75
2021/03/26 10:29:45;;;;;;;55.33;23.75;;;14.30;99.90;;;14.57;59.75;101520.19;5058062;28;20188;-73
2021/03/26 10:32:21;;;;;;;53.83;25.27;;;14.30;99.90;;;14.66;59.71;101514.56;5052983;28;20216;-74
2021/03/26 10:34:49;;;;;;;50.45;23.35;;;14.50;99.90;;;14.72;59.40;101517.78;5063361;28;20200;-73
2021/03/26 10:37:43;;;;;;;47.50;22.63;;;14.50;99.90;;;14.79;58.75;101511.34;5058735;28;20201;-73
2021/03/26 10:40:27;;;;;;;52.08;24.08;;;14.60;99.90;;;14.84;58.58;101512.00;5058919;28;20697;-76
2021/03/26 10:43:11;;;;;;;52.83;22.55;;;14.70;99.90;;;14.90;58.65;101503.84;5060049;28;20216;-75
2021/03/26 10:45:58;;;;;;;49.03;22.83;;;14.80;99.90;;;14.90;58.73;101509.09;5038524;28;20193;-75
2021/03/26 10:48:35;;;;;;;51.35;23.58;;;14.80;99.90;;;14.96;59.02;101497.44;5033388;28;20200;-73
2021/03/26 10:51:37;;;;;;;47.20;21.85;;;14.80;99.90;;;15.01;58.09;101495.47;5044622;28;20204;-76
2021/03/26 10:54:18;;;;;;;51.33;22.88;;;14.90;99.90;;;15.02;57.87;101492.78;5032511;28;20203;-75
2021/03/26 10:56:57;;;;;;;47.00;21.77;;;14.90;99.90;;;15.09;57.80;101499.50;5036629;28;20216;-72
2021/03/26 10:59:38;;;;;;;51.40;23.05;;;15.00;99.90;;;15.19;57.82;101493.84;5035647;28;20200;-75
2021/03/26 11:02:43;;;;;;;48.08;22.08;;;15.10;99.90;;;15.32;58.05;101492.38;5055706;28;20677;-72
2021/03/26 11:05:23;;;;;;;50.33;22.13;;;15.20;99.90;;;15.41;58.31;101486.69;5024911;28;20197;-74
2021/03/26 11:08:18;;;;;;;44.45;21.95;;;15.40;99.90;;;15.48;57.81;101491.63;5031597;28;20973;-74
2021/03/26 11:10:56;;;;;;;53.65;22.60;;;15.50;99.90;;;15.47;57.62;101482.03;5026712;28;20680;-73
2021/03/26 11:13:33;;;;;;;50.30;22.25;;;15.50;99.90;;;15.51;57.61;101477.44;5046459;28;20223;-74